sensor_id;sensor_type;location;lat;lon;timestamp;P1;durP1;ratioP1;P2;durP2;ratioP2
78372;SDS011;67656;52.074;4.758;2023-09-08T00:02:28;16.30;;;9.52;;
78372;SDS011;67656;52.074;4.758;2023-09-08T00:07:29;16.98;;;10.02;;
78372;SDS011;67656;52.074;4.758;2023-09-08T00:12:29;19.45;;;10.95;;
78372;SDS011;67656;52.074;4.758;2023-09-08T00:17:29;17.52;;;10.30;;
78372;SDS011;67656;52.074;4.758;2023-09-08T00:22:33;18.45;;;10.38;;
78372;SDS011;67656;52.074;4.758;2023-09-08T00:27:33;18.48;;;10.05;;
78372;SDS011;67656;52.074;4.758;2023-09-08T00:32:34;19.88;;;11.07;;
78372;SDS011;67656;52.074;4.758;2023-09-08T00:37:34;18.58;;;10.50;;
78372;SDS011;67656;52.074;4.758;2023-09-08T00:42:34;18.52;;;10.27;;
78372;SDS011;67656;52.074;4.758;2023-09-08T00:47:35;22.13;;;11.88;;
78372;SDS011;67656;52.074;4.758;2023-09-08T00:52:35;19.23;;;11.50;;
78372;SDS011;67656;52.074;4.758;2023-09-08T00:57:36;22.27;;;11.73;;
78372;SDS011;67656;52.074;4.758;2023-09-08T01:02:36;21.70;;;11.82;;
78372;SDS011;67656;52.074;4.758;2023-09-08T01:07:38;21.38;;;12.20;;
78372;SDS011;67656;52.074;4.758;2023-09-08T01:12:39;19.70;;;11.48;;
78372;SDS011;67656;52.074;4.758;2023-09-08T01:17:40;25.08;;;12.25;;
78372;SDS011;67656;52.074;4.758;2023-09-08T01:22:45;22.05;;;12.32;;
78372;SDS011;67656;52.074;4.758;2023-09-08T01:27:53;23.85;;;11.68;;
78372;SDS011;67656;52.074;4.758;2023-09-08T01:32:55;23.92;;;12.35;;
78372;SDS011;67656;52.074;4.758;2023-09-08T01:37:56;26.60;;;13.32;;
78372;SDS011;67656;52.074;4.758;2023-09-08T01:42:56;23.80;;;12.35;;
78372;SDS011;67656;52.074;4.758;2023-09-08T01:47:57;22.30;;;12.77;;
78372;SDS011;67656;52.074;4.758;2023-09-08T01:52:58;23.83;;;12.77;;
78372;SDS011;67656;52.074;4.758;2023-09-08T01:57:58;24.98;;;13.10;;
78372;SDS011;67656;52.074;4.758;2023-09-08T02:02:59;24.67;;;12.70;;
78372;SDS011;67656;52.074;4.758;2023-09-08T02:07:59;25.80;;;14.15;;
78372;SDS011;67656;52.074;4.758;2023-09-08T02:12:59;27.92;;;13.80;;
78372;SDS011;67656;52.074;4.758;2023-09-08T02:18:00;24.23;;;13.40;;
78372;SDS011;67656;52.074;4.758;2023-09-08T02:23:04;28.23;;;13.93;;
78372;SDS011;67656;52.074;4.758;2023-09-08T02:28:07;25.08;;;13.70;;
78372;SDS011;67656;52.074;4.758;2023-09-08T02:33:07;23.48;;;13.05;;
78372;SDS011;67656;52.074;4.758;2023-09-08T02:38:08;24.65;;;13.70;;
78372;SDS011;67656;52.074;4.758;2023-09-08T02:43:08;26.50;;;14.02;;
78372;SDS011;67656;52.074;4.758;2023-09-08T02:48:09;25.10;;;13.20;;
78372;SDS011;67656;52.074;4.758;2023-09-08T02:53:09;28.35;;;14.85;;
78372;SDS011;67656;52.074;4.758;2023-09-08T02:58:10;27.55;;;14.13;;
78372;SDS011;67656;52.074;4.758;2023-09-08T03:03:10;27.20;;;14.05;;
78372;SDS011;67656;52.074;4.758;2023-09-08T03:08:10;27.67;;;14.30;;
78372;SDS011;67656;52.074;4.758;2023-09-08T03:13:11;27.38;;;14.23;;
78372;SDS011;67656;52.074;4.758;2023-09-08T03:18:11;24.40;;;12.85;;
78372;SDS011;67656;52.074;4.758;2023-09-08T03:23:12;27.27;;;14.02;;
78372;SDS011;67656;52.074;4.758;2023-09-08T03:28:14;27.48;;;14.50;;
78372;SDS011;67656;52.074;4.758;2023-09-08T03:33:15;28.58;;;14.80;;
78372;SDS011;67656;52.074;4.758;2023-09-08T03:38:15;25.90;;;13.43;;
78372;SDS011;67656;52.074;4.758;2023-09-08T03:43:16;28.63;;;13.45;;
78372;SDS011;67656;52.074;4.758;2023-09-08T03:48:16;27.20;;;14.43;;
78372;SDS011;67656;52.074;4.758;2023-09-08T03:53:17;29.70;;;13.35;;
78372;SDS011;67656;52.074;4.758;2023-09-08T03:58:17;25.50;;;13.23;;
78372;SDS011;67656;52.074;4.758;2023-09-08T04:03:18;24.58;;;12.63;;
78372;SDS011;67656;52.074;4.758;2023-09-08T04:08:18;27.90;;;12.88;;
78372;SDS011;67656;52.074;4.758;2023-09-08T04:13:19;24.00;;;13.10;;
78372;SDS011;67656;52.074;4.758;2023-09-08T04:18:19;24.92;;;13.07;;
78372;SDS011;67656;52.074;4.758;2023-09-08T04:23:20;27.00;;;13.68;;
78372;SDS011;67656;52.074;4.758;2023-09-08T04:28:20;26.27;;;13.02;;
78372;SDS011;67656;52.074;4.758;2023-09-08T04:33:21;26.55;;;14.05;;
78372;SDS011;67656;52.074;4.758;2023-09-08T04:38:23;26.58;;;13.25;;
78372;SDS011;67656;52.074;4.758;2023-09-08T04:43:23;26.45;;;13.55;;
78372;SDS011;67656;52.074;4.758;2023-09-08T04:48:24;25.40;;;13.05;;
78372;SDS011;67656;52.074;4.758;2023-09-08T04:53:24;24.35;;;13.38;;
78372;SDS011;67656;52.074;4.758;2023-09-08T04:58:26;27.48;;;13.75;;
78372;SDS011;67656;52.074;4.758;2023-09-08T05:03:26;27.38;;;14.48;;
78372;SDS011;67656;52.074;4.758;2023-09-08T05:08:27;30.15;;;14.95;;
78372;SDS011;67656;52.074;4.758;2023-09-08T05:13:28;29.73;;;14.70;;
78372;SDS011;67656;52.074;4.758;2023-09-08T05:18:29;26.75;;;14.50;;
78372;SDS011;67656;52.074;4.758;2023-09-08T05:23:29;27.65;;;14.02;;
78372;SDS011;67656;52.074;4.758;2023-09-08T05:28:30;28.08;;;14.90;;
78372;SDS011;67656;52.074;4.758;2023-09-08T05:33:30;28.58;;;14.55;;
78372;SDS011;67656;52.074;4.758;2023-09-08T05:38:32;27.38;;;14.20;;
78372;SDS011;67656;52.074;4.758;2023-09-08T05:43:32;28.08;;;14.52;;
78372;SDS011;67656;52.074;4.758;2023-09-08T05:48:33;26.98;;;14.05;;
78372;SDS011;67656;52.074;4.758;2023-09-08T05:53:33;25.83;;;13.68;;
78372;SDS011;67656;52.074;4.758;2023-09-08T05:58:34;29.58;;;15.07;;
78372;SDS011;67656;52.074;4.758;2023-09-08T06:03:35;27.15;;;13.77;;
78372;SDS011;67656;52.074;4.758;2023-09-08T06:08:36;28.05;;;14.75;;
78372;SDS011;67656;52.074;4.758;2023-09-08T06:13:37;28.70;;;14.07;;
78372;SDS011;67656;52.074;4.758;2023-09-08T06:18:37;26.85;;;13.73;;
78372;SDS011;67656;52.074;4.758;2023-09-08T06:23:38;26.55;;;13.82;;
78372;SDS011;67656;52.074;4.758;2023-09-08T06:28:40;24.15;;;13.63;;
78372;SDS011;67656;52.074;4.758;2023-09-08T06:33:40;21.88;;;12.15;;
78372;SDS011;67656;52.074;4.758;2023-09-08T06:43:45;22.00;;;12.65;;
78372;SDS011;67656;52.074;4.758;2023-09-08T06:48:54;25.17;;;11.90;;
78372;SDS011;67656;52.074;4.758;2023-09-08T06:53:55;19.63;;;11.18;;
78372;SDS011;67656;52.074;4.758;2023-09-08T06:58:56;18.17;;;11.13;;
78372;SDS011;67656;52.074;4.758;2023-09-08T07:03:57;21.27;;;11.45;;
78372;SDS011;67656;52.074;4.758;2023-09-08T07:08:58;19.42;;;11.50;;
78372;SDS011;67656;52.074;4.758;2023-09-08T07:13:58;17.67;;;10.35;;
78372;SDS011;67656;52.074;4.758;2023-09-08T07:18:58;17.15;;;10.57;;
78372;SDS011;67656;52.074;4.758;2023-09-08T07:23:59;17.95;;;11.57;;
78372;SDS011;67656;52.074;4.758;2023-09-08T07:29:00;20.60;;;11.20;;
78372;SDS011;67656;52.074;4.758;2023-09-08T07:34:01;19.95;;;11.80;;
78372;SDS011;67656;52.074;4.758;2023-09-08T07:39:01;17.70;;;11.57;;
78372;SDS011;67656;52.074;4.758;2023-09-08T07:44:02;17.73;;;11.73;;
78372;SDS011;67656;52.074;4.758;2023-09-08T07:49:02;21.27;;;12.00;;
78372;SDS011;67656;52.074;4.758;2023-09-08T07:54:03;18.43;;;11.87;;
78372;SDS011;67656;52.074;4.758;2023-09-08T07:59:04;20.77;;;11.90;;
78372;SDS011;67656;52.074;4.758;2023-09-08T08:04:04;18.60;;;12.10;;
78372;SDS011;67656;52.074;4.758;2023-09-08T08:09:04;18.13;;;11.80;;
78372;SDS011;67656;52.074;4.758;2023-09-08T08:14:11;17.13;;;11.68;;
78372;SDS011;67656;52.074;4.758;2023-09-08T08:19:19;21.17;;;12.30;;
78372;SDS011;67656;52.074;4.758;2023-09-08T08:24:31;16.70;;;11.30;;
78372;SDS011;67656;52.074;4.758;2023-09-08T08:29:31;13.38;;;8.77;;
78372;SDS011;67656;52.074;4.758;2023-09-08T08:34:38;16.07;;;11.53;;
78372;SDS011;67656;52.074;4.758;2023-09-08T08:39:38;18.50;;;11.68;;
78372;SDS011;67656;52.074;4.758;2023-09-08T08:49:43;18.60;;;11.93;;
78372;SDS011;67656;52.074;4.758;2023-09-08T08:54:56;18.63;;;11.93;;
78372;SDS011;67656;52.074;4.758;2023-09-08T09:00:05;17.02;;;12.38;;
78372;SDS011;67656;52.074;4.758;2023-09-08T09:05:18;16.92;;;11.02;;
78372;SDS011;67656;52.074;4.758;2023-09-08T09:10:40;18.52;;;10.93;;
78372;SDS011;67656;52.074;4.758;2023-09-08T09:25:43;19.00;;;13.40;;
78372;SDS011;67656;52.074;4.758;2023-09-08T09:30:48;18.00;;;12.25;;
78372;SDS011;67656;52.074;4.758;2023-09-08T09:35:51;18.42;;;13.45;;
78372;SDS011;67656;52.074;4.758;2023-09-08T09:40:55;18.48;;;13.23;;
78372;SDS011;67656;52.074;4.758;2023-09-08T09:45:57;18.60;;;13.85;;
78372;SDS011;67656;52.074;4.758;2023-09-08T09:50:57;19.45;;;12.85;;
78372;SDS011;67656;52.074;4.758;2023-09-08T09:55:57;18.52;;;12.30;;
78372;SDS011;67656;52.074;4.758;2023-09-08T10:00:58;15.27;;;10.38;;
78372;SDS011;67656;52.074;4.758;2023-09-08T10:05:59;14.73;;;9.95;;
78372;SDS011;67656;52.074;4.758;2023-09-08T10:11:00;15.38;;;10.93;;
78372;SDS011;67656;52.074;4.758;2023-09-08T10:16:03;15.52;;;10.25;;
78372;SDS011;67656;52.074;4.758;2023-09-08T10:21:05;14.55;;;9.38;;
78372;SDS011;67656;52.074;4.758;2023-09-08T10:26:11;15.60;;;8.52;;
78372;SDS011;67656;52.074;4.758;2023-09-08T10:31:12;15.10;;;10.40;;
78372;SDS011;67656;52.074;4.758;2023-09-08T10:36:13;17.05;;;10.55;;
78372;SDS011;67656;52.074;4.758;2023-09-08T10:46:21;12.70;;;8.23;;
78372;SDS011;67656;52.074;4.758;2023-09-08T10:51:26;12.82;;;8.40;;
78372;SDS011;67656;52.074;4.758;2023-09-08T10:56:27;16.07;;;8.50;;
78372;SDS011;67656;52.074;4.758;2023-09-08T11:01:29;11.80;;;8.70;;
78372;SDS011;67656;52.074;4.758;2023-09-08T11:06:29;13.20;;;8.60;;
78372;SDS011;67656;52.074;4.758;2023-09-08T11:11:33;13.35;;;9.50;;
78372;SDS011;67656;52.074;4.758;2023-09-08T11:16:36;11.77;;;7.55;;
78372;SDS011;67656;52.074;4.758;2023-09-08T11:21:55;14.48;;;8.52;;
78372;SDS011;67656;52.074;4.758;2023-09-08T11:27:10;12.52;;;7.65;;
78372;SDS011;67656;52.074;4.758;2023-09-08T11:32:12;7.28;;;5.78;;
78372;SDS011;67656;52.074;4.758;2023-09-08T11:37:17;8.43;;;5.32;;
78372;SDS011;67656;52.074;4.758;2023-09-08T11:42:18;8.05;;;5.63;;
78372;SDS011;67656;52.074;4.758;2023-09-08T11:47:18;7.15;;;5.70;;
78372;SDS011;67656;52.074;4.758;2023-09-08T11:52:22;8.13;;;5.63;;
78372;SDS011;67656;52.074;4.758;2023-09-08T11:57:23;8.07;;;5.80;;
78372;SDS011;67656;52.074;4.758;2023-09-08T12:02:23;6.88;;;4.82;;
78372;SDS011;67656;52.074;4.758;2023-09-08T12:07:24;8.13;;;5.57;;
78372;SDS011;67656;52.074;4.758;2023-09-08T12:12:25;7.70;;;5.90;;
78372;SDS011;67656;52.074;4.758;2023-09-08T12:17:26;11.80;;;6.30;;
78372;SDS011;67656;52.074;4.758;2023-09-08T12:22:28;5.87;;;4.97;;
78372;SDS011;67656;52.074;4.758;2023-09-08T12:27:35;6.88;;;5.10;;
78372;SDS011;67656;52.074;4.758;2023-09-08T12:32:37;7.78;;;4.75;;
78372;SDS011;67656;52.074;4.758;2023-09-08T12:37:39;6.95;;;4.70;;
78372;SDS011;67656;52.074;4.758;2023-09-08T12:42:39;8.13;;;4.90;;
78372;SDS011;67656;52.074;4.758;2023-09-08T12:47:39;11.13;;;5.27;;
78372;SDS011;67656;52.074;4.758;2023-09-08T12:52:40;5.67;;;4.50;;
78372;SDS011;67656;52.074;4.758;2023-09-08T12:57:40;6.47;;;4.47;;
78372;SDS011;67656;52.074;4.758;2023-09-08T13:02:41;6.63;;;5.23;;
78372;SDS011;67656;52.074;4.758;2023-09-08T13:07:41;6.83;;;4.90;;
78372;SDS011;67656;52.074;4.758;2023-09-08T13:12:41;7.97;;;4.33;;
78372;SDS011;67656;52.074;4.758;2023-09-08T13:17:45;9.02;;;5.40;;
78372;SDS011;67656;52.074;4.758;2023-09-08T13:22:45;9.77;;;5.20;;
78372;SDS011;67656;52.074;4.758;2023-09-08T13:27:46;6.83;;;5.70;;
78372;SDS011;67656;52.074;4.758;2023-09-08T13:33:01;8.87;;;5.60;;
78372;SDS011;67656;52.074;4.758;2023-09-08T13:38:05;9.77;;;6.18;;
78372;SDS011;67656;52.074;4.758;2023-09-08T13:43:08;10.45;;;5.93;;
78372;SDS011;67656;52.074;4.758;2023-09-08T13:48:09;8.57;;;6.27;;
78372;SDS011;67656;52.074;4.758;2023-09-08T13:53:09;10.87;;;5.93;;
78372;SDS011;67656;52.074;4.758;2023-09-08T13:58:10;8.63;;;6.00;;
78372;SDS011;67656;52.074;4.758;2023-09-08T14:03:10;8.93;;;5.83;;
78372;SDS011;67656;52.074;4.758;2023-09-08T14:08:10;10.40;;;6.13;;
78372;SDS011;67656;52.074;4.758;2023-09-08T14:13:11;11.33;;;6.30;;
78372;SDS011;67656;52.074;4.758;2023-09-08T14:18:11;8.33;;;5.97;;
78372;SDS011;67656;52.074;4.758;2023-09-08T14:23:12;6.93;;;5.80;;
78372;SDS011;67656;52.074;4.758;2023-09-08T14:28:12;10.73;;;5.87;;
78372;SDS011;67656;52.074;4.758;2023-09-08T14:33:12;9.43;;;6.17;;
78372;SDS011;67656;52.074;4.758;2023-09-08T14:38:16;8.05;;;6.03;;
78372;SDS011;67656;52.074;4.758;2023-09-08T14:43:17;11.68;;;6.07;;
78372;SDS011;67656;52.074;4.758;2023-09-08T14:48:18;8.20;;;5.90;;
78372;SDS011;67656;52.074;4.758;2023-09-08T14:53:19;11.77;;;7.60;;
78372;SDS011;67656;52.074;4.758;2023-09-08T14:58:19;8.00;;;5.77;;
78372;SDS011;67656;52.074;4.758;2023-09-08T15:03:19;5.67;;;4.80;;
78372;SDS011;67656;52.074;4.758;2023-09-08T15:08:20;5.97;;;4.20;;
78372;SDS011;67656;52.074;4.758;2023-09-08T15:13:20;5.60;;;4.20;;
78372;SDS011;67656;52.074;4.758;2023-09-08T15:18:20;7.13;;;4.30;;
78372;SDS011;67656;52.074;4.758;2023-09-08T15:23:21;6.00;;;3.97;;
78372;SDS011;67656;52.074;4.758;2023-09-08T15:28:22;6.20;;;4.20;;
78372;SDS011;67656;52.074;4.758;2023-09-08T15:33:22;4.90;;;3.93;;
78372;SDS011;67656;52.074;4.758;2023-09-08T15:38:23;7.37;;;4.10;;
78372;SDS011;67656;52.074;4.758;2023-09-08T15:43:23;8.77;;;3.77;;
78372;SDS011;67656;52.074;4.758;2023-09-08T15:48:24;6.93;;;4.17;;
78372;SDS011;67656;52.074;4.758;2023-09-08T15:53:24;6.20;;;3.37;;
78372;SDS011;67656;52.074;4.758;2023-09-08T15:58:24;5.40;;;3.70;;
78372;SDS011;67656;52.074;4.758;2023-09-08T16:03:25;8.73;;;3.80;;
78372;SDS011;67656;52.074;4.758;2023-09-08T16:08:25;5.83;;;3.23;;
78372;SDS011;67656;52.074;4.758;2023-09-08T16:13:26;4.90;;;3.37;;
78372;SDS011;67656;52.074;4.758;2023-09-08T16:18:26;6.23;;;3.60;;
78372;SDS011;67656;52.074;4.758;2023-09-08T16:23:27;5.07;;;3.50;;
78372;SDS011;67656;52.074;4.758;2023-09-08T16:28:27;4.93;;;3.58;;
78372;SDS011;67656;52.074;4.758;2023-09-08T16:33:28;5.90;;;3.58;;
78372;SDS011;67656;52.074;4.758;2023-09-08T16:38:28;4.63;;;3.50;;
78372;SDS011;67656;52.074;4.758;2023-09-08T16:43:28;4.85;;;3.53;;
78372;SDS011;67656;52.074;4.758;2023-09-08T16:48:29;7.85;;;3.60;;
78372;SDS011;67656;52.074;4.758;2023-09-08T16:53:29;5.33;;;3.50;;
78372;SDS011;67656;52.074;4.758;2023-09-08T16:58:29;6.00;;;4.03;;
78372;SDS011;67656;52.074;4.758;2023-09-08T17:03:30;6.10;;;4.45;;
78372;SDS011;67656;52.074;4.758;2023-09-08T17:08:30;6.20;;;4.43;;
78372;SDS011;67656;52.074;4.758;2023-09-08T17:13:34;7.78;;;5.25;;
78372;SDS011;67656;52.074;4.758;2023-09-08T17:18:36;7.20;;;4.90;;
78372;SDS011;67656;52.074;4.758;2023-09-08T17:23:37;8.82;;;5.38;;
78372;SDS011;67656;52.074;4.758;2023-09-08T17:28:40;10.85;;;4.80;;
78372;SDS011;67656;52.074;4.758;2023-09-08T17:33:43;8.40;;;5.10;;
78372;SDS011;67656;52.074;4.758;2023-09-08T17:38:43;10.52;;;4.85;;
78372;SDS011;67656;52.074;4.758;2023-09-08T17:43:44;8.98;;;4.95;;
78372;SDS011;67656;52.074;4.758;2023-09-08T17:48:44;8.25;;;4.43;;
78372;SDS011;67656;52.074;4.758;2023-09-08T17:53:47;9.75;;;4.38;;
78372;SDS011;67656;52.074;4.758;2023-09-08T17:58:48;9.48;;;5.18;;
78372;SDS011;67656;52.074;4.758;2023-09-08T18:09:24;8.50;;;5.40;;
78372;SDS011;67656;52.074;4.758;2023-09-08T18:14:30;8.38;;;5.53;;
78372;SDS011;67656;52.074;4.758;2023-09-08T18:19:40;9.75;;;6.00;;
78372;SDS011;67656;52.074;4.758;2023-09-08T18:24:41;9.70;;;5.40;;
78372;SDS011;67656;52.074;4.758;2023-09-08T18:29:53;10.55;;;6.80;;
78372;SDS011;67656;52.074;4.758;2023-09-08T18:35:03;12.70;;;7.28;;
78372;SDS011;67656;52.074;4.758;2023-09-08T18:40:27;13.27;;;8.13;;
78372;SDS011;67656;52.074;4.758;2023-09-08T18:45:28;15.02;;;9.68;;
78372;SDS011;67656;52.074;4.758;2023-09-08T18:50:28;20.83;;;12.52;;
78372;SDS011;67656;52.074;4.758;2023-09-08T18:56:09;24.58;;;14.32;;
78372;SDS011;67656;52.074;4.758;2023-09-08T19:01:15;34.30;;;19.10;;
78372;SDS011;67656;52.074;4.758;2023-09-08T19:06:15;46.45;;;26.15;;
78372;SDS011;67656;52.074;4.758;2023-09-08T19:11:18;50.83;;;29.42;;
78372;SDS011;67656;52.074;4.758;2023-09-08T19:16:19;57.75;;;30.75;;
78372;SDS011;67656;52.074;4.758;2023-09-08T19:21:20;55.33;;;30.75;;
78372;SDS011;67656;52.074;4.758;2023-09-08T19:26:23;63.58;;;32.80;;
78372;SDS011;67656;52.074;4.758;2023-09-08T19:31:26;68.32;;;34.95;;
78372;SDS011;67656;52.074;4.758;2023-09-08T19:41:30;73.70;;;37.88;;
78372;SDS011;67656;52.074;4.758;2023-09-08T19:46:36;77.30;;;40.70;;
78372;SDS011;67656;52.074;4.758;2023-09-08T19:51:36;70.50;;;37.65;;
78372;SDS011;67656;52.074;4.758;2023-09-08T19:56:39;78.55;;;39.55;;
78372;SDS011;67656;52.074;4.758;2023-09-08T20:01:40;82.90;;;42.83;;
78372;SDS011;67656;52.074;4.758;2023-09-08T20:06:40;85.53;;;42.47;;
78372;SDS011;67656;52.074;4.758;2023-09-08T20:11:41;88.13;;;43.70;;
78372;SDS011;67656;52.074;4.758;2023-09-08T20:16:42;95.07;;;45.88;;
78372;SDS011;67656;52.074;4.758;2023-09-08T20:21:42;103.88;;;50.40;;
78372;SDS011;67656;52.074;4.758;2023-09-08T20:26:43;104.38;;;49.88;;
78372;SDS011;67656;52.074;4.758;2023-09-08T20:31:46;103.60;;;50.72;;
78372;SDS011;67656;52.074;4.758;2023-09-08T20:36:46;101.22;;;50.28;;
78372;SDS011;67656;52.074;4.758;2023-09-08T20:41:47;110.80;;;54.30;;
78372;SDS011;67656;52.074;4.758;2023-09-08T20:46:50;108.45;;;52.45;;
78372;SDS011;67656;52.074;4.758;2023-09-08T20:51:50;102.93;;;48.15;;
78372;SDS011;67656;52.074;4.758;2023-09-08T20:56:51;122.53;;;58.80;;
78372;SDS011;67656;52.074;4.758;2023-09-08T21:01:54;115.60;;;57.10;;
78372;SDS011;67656;52.074;4.758;2023-09-08T21:07:00;118.25;;;54.80;;
78372;SDS011;67656;52.074;4.758;2023-09-08T21:12:00;126.88;;;58.72;;
78372;SDS011;67656;52.074;4.758;2023-09-08T21:17:01;128.10;;;58.83;;
78372;SDS011;67656;52.074;4.758;2023-09-08T21:22:02;124.32;;;57.38;;
78372;SDS011;67656;52.074;4.758;2023-09-08T21:27:02;130.75;;;58.95;;
78372;SDS011;67656;52.074;4.758;2023-09-08T21:32:06;128.20;;;58.28;;
78372;SDS011;67656;52.074;4.758;2023-09-08T21:37:07;136.13;;;61.95;;
78372;SDS011;67656;52.074;4.758;2023-09-08T21:42:09;130.77;;;60.00;;
78372;SDS011;67656;52.074;4.758;2023-09-08T21:47:10;138.35;;;64.35;;
78372;SDS011;67656;52.074;4.758;2023-09-08T21:52:11;139.75;;;66.38;;
78372;SDS011;67656;52.074;4.758;2023-09-08T21:57:11;148.95;;;65.20;;
78372;SDS011;67656;52.074;4.758;2023-09-08T22:02:14;143.73;;;65.35;;
78372;SDS011;67656;52.074;4.758;2023-09-08T22:07:15;144.43;;;65.70;;
78372;SDS011;67656;52.074;4.758;2023-09-08T22:12:15;148.77;;;68.70;;
78372;SDS011;67656;52.074;4.758;2023-09-08T22:17:16;144.18;;;64.72;;
78372;SDS011;67656;52.074;4.758;2023-09-08T22:22:22;149.27;;;66.72;;
78372;SDS011;67656;52.074;4.758;2023-09-08T22:27:23;135.60;;;64.05;;
78372;SDS011;67656;52.074;4.758;2023-09-08T22:32:23;136.35;;;61.58;;
78372;SDS011;67656;52.074;4.758;2023-09-08T22:37:23;137.90;;;62.92;;
78372;SDS011;67656;52.074;4.758;2023-09-08T22:42:24;145.05;;;64.68;;
78372;SDS011;67656;52.074;4.758;2023-09-08T22:47:25;142.30;;;64.18;;
78372;SDS011;67656;52.074;4.758;2023-09-08T22:52:25;134.65;;;62.83;;
78372;SDS011;67656;52.074;4.758;2023-09-08T22:57:26;134.20;;;60.55;;
78372;SDS011;67656;52.074;4.758;2023-09-08T23:02:27;135.70;;;61.35;;
78372;SDS011;67656;52.074;4.758;2023-09-08T23:07:27;133.77;;;61.85;;
78372;SDS011;67656;52.074;4.758;2023-09-08T23:12:28;130.20;;;59.00;;
78372;SDS011;67656;52.074;4.758;2023-09-08T23:17:29;143.68;;;61.58;;
78372;SDS011;67656;52.074;4.758;2023-09-08T23:22:29;135.75;;;59.05;;
78372;SDS011;67656;52.074;4.758;2023-09-08T23:27:30;130.55;;;59.00;;
78372;SDS011;67656;52.074;4.758;2023-09-08T23:32:30;134.10;;;59.38;;
78372;SDS011;67656;52.074;4.758;2023-09-08T23:37:31;153.73;;;62.90;;
78372;SDS011;67656;52.074;4.758;2023-09-08T23:42:34;147.25;;;61.28;;
78372;SDS011;67656;52.074;4.758;2023-09-08T23:47:34;145.73;;;59.72;;
78372;SDS011;67656;52.074;4.758;2023-09-08T23:52:35;148.98;;;61.53;;
78372;SDS011;67656;52.074;4.758;2023-09-08T23:57:38;162.88;;;62.60;;
